sensor_id;sensor_type;location;lat;lon;timestamp;temperature;humidity
59309;DHT22;48433;53.016;-2.260;2023-01-19T00:01:31;-0.20;99.90
59309;DHT22;48433;53.016;-2.260;2023-01-19T00:08:55;-0.30;99.90
59309;DHT22;48433;53.016;-2.260;2023-01-19T00:11:23;-0.40;99.90
59309;DHT22;48433;53.016;-2.260;2023-01-19T00:13:51;-0.30;99.90
59309;DHT22;48433;53.016;-2.260;2023-01-19T00:16:20;-0.40;99.90
59309;DHT22;48433;53.016;-2.260;2023-01-19T00:18:50;-0.40;99.90
59309;DHT22;48433;53.016;-2.260;2023-01-19T00:21:19;-0.40;99.90
59309;DHT22;48433;53.016;-2.260;2023-01-19T00:23:48;-0.50;99.90
59309;DHT22;48433;53.016;-2.260;2023-01-19T00:26:18;-0.50;99.90
59309;DHT22;48433;53.016;-2.260;2023-01-19T00:28:45;-0.50;99.90
59309;DHT22;48433;53.016;-2.260;2023-01-19T00:31:13;-0.50;99.90
59309;DHT22;48433;53.016;-2.260;2023-01-19T00:33:41;-0.50;99.90
59309;DHT22;48433;53.016;-2.260;2023-01-19T00:53:26;-0.20;99.90
59309;DHT22;48433;53.016;-2.260;2023-01-19T00:58:26;-0.10;99.90
59309;DHT22;48433;53.016;-2.260;2023-01-19T01:03:24;0.10;99.90
59309;DHT22;48433;53.016;-2.260;2023-01-19T01:08:22;0.20;99.90
59309;DHT22;48433;53.016;-2.260;2023-01-19T01:10:50;0.20;99.90
59309;DHT22;48433;53.016;-2.260;2023-01-19T01:13:18;0.20;99.90
59309;DHT22;48433;53.016;-2.260;2023-01-19T01:15:51;0.20;99.90
59309;DHT22;48433;53.016;-2.260;2023-01-19T01:18:20;0.10;99.90
59309;DHT22;48433;53.016;-2.260;2023-01-19T01:20:48;0.10;99.90
59309;DHT22;48433;53.016;-2.260;2023-01-19T01:23:16;0.10;99.90
59309;DHT22;48433;53.016;-2.260;2023-01-19T01:33:13;0.00;99.90
59309;DHT22;48433;53.016;-2.260;2023-01-19T01:35:41;0.00;99.90
59309;DHT22;48433;53.016;-2.260;2023-01-19T01:40:39;0.00;99.90
59309;DHT22;48433;53.016;-2.260;2023-01-19T01:43:15;-0.10;99.90
59309;DHT22;48433;53.016;-2.260;2023-01-19T01:45:43;-0.10;99.90
59309;DHT22;48433;53.016;-2.260;2023-01-19T01:48:20;-0.10;99.90
59309;DHT22;48433;53.016;-2.260;2023-01-19T01:50:58;-0.10;99.90
59309;DHT22;48433;53.016;-2.260;2023-01-19T01:53:50;-0.10;99.90
59309;DHT22;48433;53.016;-2.260;2023-01-19T01:56:23;0.10;99.90
59309;DHT22;48433;53.016;-2.260;2023-01-19T01:58:51;-0.20;99.90
59309;DHT22;48433;53.016;-2.260;2023-01-19T02:04:05;-0.20;99.90
59309;DHT22;48433;53.016;-2.260;2023-01-19T02:06:33;-0.20;99.90
59309;DHT22;48433;53.016;-2.260;2023-01-19T02:09:07;-0.10;99.90
59309;DHT22;48433;53.016;-2.260;2023-01-19T02:11:55;-0.10;99.90
59309;DHT22;48433;53.016;-2.260;2023-01-19T02:14:42;-0.10;99.90
59309;DHT22;48433;53.016;-2.260;2023-01-19T02:17:10;0.00;99.90
59309;DHT22;48433;53.016;-2.260;2023-01-19T02:19:40;0.00;99.90
59309;DHT22;48433;53.016;-2.260;2023-01-19T02:22:22;0.00;99.90
59309;DHT22;48433;53.016;-2.260;2023-01-19T02:24:51;0.00;99.90
59309;DHT22;48433;53.016;-2.260;2023-01-19T02:27:19;0.00;99.90
59309;DHT22;48433;53.016;-2.260;2023-01-19T02:29:47;0.00;99.90
59309;DHT22;48433;53.016;-2.260;2023-01-19T02:32:15;0.00;99.90
59309;DHT22;48433;53.016;-2.260;2023-01-19T02:37:12;0.00;99.90
59309;DHT22;48433;53.016;-2.260;2023-01-19T02:39:53;0.00;99.90
59309;DHT22;48433;53.016;-2.260;2023-01-19T02:42:26;0.00;99.90
59309;DHT22;48433;53.016;-2.260;2023-01-19T02:44:56;0.00;99.90
59309;DHT22;48433;53.016;-2.260;2023-01-19T02:47:24;0.00;99.90
59309;DHT22;48433;53.016;-2.260;2023-01-19T02:50:00;0.00;99.90
59309;DHT22;48433;53.016;-2.260;2023-01-19T02:52:28;0.10;99.90
59309;DHT22;48433;53.016;-2.260;2023-01-19T02:55:15;0.20;99.90
59309;DHT22;48433;53.016;-2.260;2023-01-19T03:04:16;0.40;99.90
59309;DHT22;48433;53.016;-2.260;2023-01-19T03:07:07;0.40;99.90
59309;DHT22;48433;53.016;-2.260;2023-01-19T03:09:53;0.40;99.90
59309;DHT22;48433;53.016;-2.260;2023-01-19T03:12:52;0.40;99.90
59309;DHT22;48433;53.016;-2.260;2023-01-19T03:15:30;0.40;99.90
59309;DHT22;48433;53.016;-2.260;2023-01-19T03:17:59;0.40;99.90
59309;DHT22;48433;53.016;-2.260;2023-01-19T03:20:28;0.50;99.90
59309;DHT22;48433;53.016;-2.260;2023-01-19T03:23:00;0.50;99.90
59309;DHT22;48433;53.016;-2.260;2023-01-19T03:25:34;0.50;99.90
59309;DHT22;48433;53.016;-2.260;2023-01-19T03:28:02;0.50;99.90
59309;DHT22;48433;53.016;-2.260;2023-01-19T03:30:37;0.60;99.90
59309;DHT22;48433;53.016;-2.260;2023-01-19T03:33:16;0.60;99.90
59309;DHT22;48433;53.016;-2.260;2023-01-19T03:35:49;0.60;99.90
59309;DHT22;48433;53.016;-2.260;2023-01-19T03:38:20;0.70;99.90
59309;DHT22;48433;53.016;-2.260;2023-01-19T03:40:48;0.70;99.90
59309;DHT22;48433;53.016;-2.260;2023-01-19T03:43:17;0.70;99.90
59309;DHT22;48433;53.016;-2.260;2023-01-19T03:45:46;0.60;99.90
59309;DHT22;48433;53.016;-2.260;2023-01-19T03:53:15;0.70;99.90
59309;DHT22;48433;53.016;-2.260;2023-01-19T03:55:49;0.80;99.90
59309;DHT22;48433;53.016;-2.260;2023-01-19T03:58:17;0.80;99.90
59309;DHT22;48433;53.016;-2.260;2023-01-19T04:03:15;0.90;99.90
59309;DHT22;48433;53.016;-2.260;2023-01-19T04:05:43;1.00;99.90
59309;DHT22;48433;53.016;-2.260;2023-01-19T04:08:12;1.00;99.90
59309;DHT22;48433;53.016;-2.260;2023-01-19T04:13:07;1.10;99.90
59309;DHT22;48433;53.016;-2.260;2023-01-19T04:15:35;1.10;99.90
59309;DHT22;48433;53.016;-2.260;2023-01-19T04:20:31;1.20;99.90
59309;DHT22;48433;53.016;-2.260;2023-01-19T04:23:00;1.20;99.90
59309;DHT22;48433;53.016;-2.260;2023-01-19T04:32:53;1.30;99.90
59309;DHT22;48433;53.016;-2.260;2023-01-19T04:40:18;1.30;99.90
59309;DHT22;48433;53.016;-2.260;2023-01-19T04:42:46;1.20;99.90
59309;DHT22;48433;53.016;-2.260;2023-01-19T04:47:41;1.10;99.90
59309;DHT22;48433;53.016;-2.260;2023-01-19T04:50:10;1.10;99.90
59309;DHT22;48433;53.016;-2.260;2023-01-19T04:52:38;1.10;99.90
59309;DHT22;48433;53.016;-2.260;2023-01-19T04:55:06;1.10;99.90
59309;DHT22;48433;53.016;-2.260;2023-01-19T04:57:34;1.10;99.90
59309;DHT22;48433;53.016;-2.260;2023-01-19T05:00:02;1.00;99.90
59309;DHT22;48433;53.016;-2.260;2023-01-19T05:05:01;0.90;99.90
59309;DHT22;48433;53.016;-2.260;2023-01-19T05:07:29;0.90;99.90
59309;DHT22;48433;53.016;-2.260;2023-01-19T05:09:57;0.90;99.90
59309;DHT22;48433;53.016;-2.260;2023-01-19T05:14:52;0.90;99.90
59309;DHT22;48433;53.016;-2.260;2023-01-19T05:17:20;0.90;99.90
59309;DHT22;48433;53.016;-2.260;2023-01-19T05:19:47;0.90;99.90
59309;DHT22;48433;53.016;-2.260;2023-01-19T05:22:15;0.80;99.90
59309;DHT22;48433;53.016;-2.260;2023-01-19T05:27:11;0.80;99.90
59309;DHT22;48433;53.016;-2.260;2023-01-19T05:34:34;0.70;99.90
59309;DHT22;48433;53.016;-2.260;2023-01-19T05:37:02;0.70;99.90
59309;DHT22;48433;53.016;-2.260;2023-01-19T05:41:57;0.80;99.90
59309;DHT22;48433;53.016;-2.260;2023-01-19T05:44:25;0.80;99.90
59309;DHT22;48433;53.016;-2.260;2023-01-19T05:54:16;1.00;99.90
59309;DHT22;48433;53.016;-2.260;2023-01-19T05:56:44;1.10;99.90
59309;DHT22;48433;53.016;-2.260;2023-01-19T05:59:11;1.20;99.90
59309;DHT22;48433;53.016;-2.260;2023-01-19T06:01:39;1.20;99.90
59309;DHT22;48433;53.016;-2.260;2023-01-19T06:04:08;1.10;99.90
59309;DHT22;48433;53.016;-2.260;2023-01-19T06:06:35;1.10;99.90
59309;DHT22;48433;53.016;-2.260;2023-01-19T06:09:03;1.10;99.90
59309;DHT22;48433;53.016;-2.260;2023-01-19T06:23:50;1.10;99.90
59309;DHT22;48433;53.016;-2.260;2023-01-19T06:26:18;1.00;99.90
59309;DHT22;48433;53.016;-2.260;2023-01-19T06:28:45;1.00;99.90
59309;DHT22;48433;53.016;-2.260;2023-01-19T06:31:13;1.00;99.90
59309;DHT22;48433;53.016;-2.260;2023-01-19T06:33:41;1.10;99.90
59309;DHT22;48433;53.016;-2.260;2023-01-19T06:36:09;1.10;99.90
59309;DHT22;48433;53.016;-2.260;2023-01-19T06:46:00;1.10;99.90
59309;DHT22;48433;53.016;-2.260;2023-01-19T06:53:26;1.30;99.90
59309;DHT22;48433;53.016;-2.260;2023-01-19T06:56:01;1.30;99.90
59309;DHT22;48433;53.016;-2.260;2023-01-19T06:58:31;1.30;99.90
59309;DHT22;48433;53.016;-2.260;2023-01-19T07:01:02;1.30;99.90
59309;DHT22;48433;53.016;-2.260;2023-01-19T07:03:30;1.30;99.90
59309;DHT22;48433;53.016;-2.260;2023-01-19T07:05:58;1.30;99.90
59309;DHT22;48433;53.016;-2.260;2023-01-19T07:08:29;1.30;99.90
59309;DHT22;48433;53.016;-2.260;2023-01-19T07:11:00;1.30;99.90
59309;DHT22;48433;53.016;-2.260;2023-01-19T07:13:52;1.30;99.90
59309;DHT22;48433;53.016;-2.260;2023-01-19T07:18:48;1.10;99.90
59309;DHT22;48433;53.016;-2.260;2023-01-19T07:21:16;1.00;99.90
59309;DHT22;48433;53.016;-2.260;2023-01-19T07:23:47;1.10;99.90
59309;DHT22;48433;53.016;-2.260;2023-01-19T07:28:46;1.10;99.90
59309;DHT22;48433;53.016;-2.260;2023-01-19T07:31:15;1.10;99.90
59309;DHT22;48433;53.016;-2.260;2023-01-19T07:33:44;1.20;99.90
59309;DHT22;48433;53.016;-2.260;2023-01-19T07:36:11;1.20;99.90
59309;DHT22;48433;53.016;-2.260;2023-01-19T07:38:40;1.20;99.90
59309;DHT22;48433;53.016;-2.260;2023-01-19T07:41:08;1.20;99.90
59309;DHT22;48433;53.016;-2.260;2023-01-19T07:43:36;1.20;99.90
59309;DHT22;48433;53.016;-2.260;2023-01-19T07:46:05;1.20;99.90
59309;DHT22;48433;53.016;-2.260;2023-01-19T07:48:33;1.20;99.90
59309;DHT22;48433;53.016;-2.260;2023-01-19T07:51:03;1.20;99.90
59309;DHT22;48433;53.016;-2.260;2023-01-19T07:53:39;1.20;99.90
59309;DHT22;48433;53.016;-2.260;2023-01-19T07:56:08;1.30;99.90
59309;DHT22;48433;53.016;-2.260;2023-01-19T08:01:10;1.20;99.90
59309;DHT22;48433;53.016;-2.260;2023-01-19T08:03:38;1.20;99.90
59309;DHT22;48433;53.016;-2.260;2023-01-19T08:06:06;1.30;99.90
59309;DHT22;48433;53.016;-2.260;2023-01-19T08:08:34;1.20;99.90
59309;DHT22;48433;53.016;-2.260;2023-01-19T08:11:01;1.20;99.90
59309;DHT22;48433;53.016;-2.260;2023-01-19T08:13:29;1.20;99.90
59309;DHT22;48433;53.016;-2.260;2023-01-19T08:15:57;1.20;99.90
59309;DHT22;48433;53.016;-2.260;2023-01-19T08:23:20;1.20;99.90
59309;DHT22;48433;53.016;-2.260;2023-01-19T08:28:16;1.00;99.90
59309;DHT22;48433;53.016;-2.260;2023-01-19T08:30:44;1.00;99.90
59309;DHT22;48433;53.016;-2.260;2023-01-19T08:33:12;0.90;99.90
59309;DHT22;48433;53.016;-2.260;2023-01-19T08:35:42;0.90;99.90
59309;DHT22;48433;53.016;-2.260;2023-01-19T08:38:10;0.80;99.90
59309;DHT22;48433;53.016;-2.260;2023-01-19T08:40:39;0.90;99.90
59309;DHT22;48433;53.016;-2.260;2023-01-19T08:43:09;0.90;99.90
59309;DHT22;48433;53.016;-2.260;2023-01-19T08:45:39;1.10;99.90
59309;DHT22;48433;53.016;-2.260;2023-01-19T08:53:04;2.00;99.90
59309;DHT22;48433;53.016;-2.260;2023-01-19T08:55:35;2.50;99.90
59309;DHT22;48433;53.016;-2.260;2023-01-19T08:58:04;2.90;99.90
59309;DHT22;48433;53.016;-2.260;2023-01-19T09:00:32;3.20;99.90
59309;DHT22;48433;53.016;-2.260;2023-01-19T09:08:09;3.00;99.90
59309;DHT22;48433;53.016;-2.260;2023-01-19T09:10:38;2.70;99.90
59309;DHT22;48433;53.016;-2.260;2023-01-19T09:13:10;2.50;99.90
59309;DHT22;48433;53.016;-2.260;2023-01-19T09:15:38;2.20;99.90
59309;DHT22;48433;53.016;-2.260;2023-01-19T09:18:11;2.10;99.90
59309;DHT22;48433;53.016;-2.260;2023-01-19T09:20:40;2.00;99.90
59309;DHT22;48433;53.016;-2.260;2023-01-19T09:23:14;2.00;99.90
59309;DHT22;48433;53.016;-2.260;2023-01-19T09:25:44;2.00;99.90
59309;DHT22;48433;53.016;-2.260;2023-01-19T09:28:15;2.20;99.90
59309;DHT22;48433;53.016;-2.260;2023-01-19T09:30:43;2.40;99.90
59309;DHT22;48433;53.016;-2.260;2023-01-19T09:33:14;2.60;99.90
59309;DHT22;48433;53.016;-2.260;2023-01-19T09:35:43;2.60;99.90
59309;DHT22;48433;53.016;-2.260;2023-01-19T09:38:11;2.60;99.90
59309;DHT22;48433;53.016;-2.260;2023-01-19T09:48:51;2.70;99.90
59309;DHT22;48433;53.016;-2.260;2023-01-19T09:51:23;2.60;99.90
59309;DHT22;48433;53.016;-2.260;2023-01-19T09:56:26;2.40;99.90
59309;DHT22;48433;53.016;-2.260;2023-01-19T09:58:55;2.20;99.90
59309;DHT22;48433;53.016;-2.260;2023-01-19T10:04:25;2.10;99.90
59309;DHT22;48433;53.016;-2.260;2023-01-19T10:07:06;2.30;99.90
59309;DHT22;48433;53.016;-2.260;2023-01-19T10:12:34;4.10;99.90
59309;DHT22;48433;53.016;-2.260;2023-01-19T10:15:20;4.40;99.90
59309;DHT22;48433;53.016;-2.260;2023-01-19T10:18:16;4.30;99.90
59309;DHT22;48433;53.016;-2.260;2023-01-19T10:23:43;3.90;99.90
59309;DHT22;48433;53.016;-2.260;2023-01-19T10:26:24;3.80;99.90
59309;DHT22;48433;53.016;-2.260;2023-01-19T10:28:54;3.70;99.90
59309;DHT22;48433;53.016;-2.260;2023-01-19T10:31:24;3.60;99.90
59309;DHT22;48433;53.016;-2.260;2023-01-19T10:33:52;3.40;99.90
59309;DHT22;48433;53.016;-2.260;2023-01-19T10:38:54;4.30;99.90
59309;DHT22;48433;53.016;-2.260;2023-01-19T10:41:41;5.00;99.90
59309;DHT22;48433;53.016;-2.260;2023-01-19T10:44:10;6.00;99.90
59309;DHT22;48433;53.016;-2.260;2023-01-19T10:46:42;7.10;99.90
59309;DHT22;48433;53.016;-2.260;2023-01-19T10:49:27;8.00;99.90
59309;DHT22;48433;53.016;-2.260;2023-01-19T10:51:56;8.30;99.90
59309;DHT22;48433;53.016;-2.260;2023-01-19T10:54:25;8.60;99.90
59309;DHT22;48433;53.016;-2.260;2023-01-19T10:56:56;8.70;99.90
59309;DHT22;48433;53.016;-2.260;2023-01-19T11:02:19;9.00;99.90
59309;DHT22;48433;53.016;-2.260;2023-01-19T11:04:49;9.50;99.90
59309;DHT22;48433;53.016;-2.260;2023-01-19T11:15:34;10.90;99.90
59309;DHT22;48433;53.016;-2.260;2023-01-19T11:18:04;10.10;99.90
59309;DHT22;48433;53.016;-2.260;2023-01-19T11:20:46;9.40;99.90
59309;DHT22;48433;53.016;-2.260;2023-01-19T11:23:23;9.40;99.90
59309;DHT22;48433;53.016;-2.260;2023-01-19T11:25:53;9.00;99.90
59309;DHT22;48433;53.016;-2.260;2023-01-19T11:28:29;8.40;99.90
59309;DHT22;48433;53.016;-2.260;2023-01-19T11:38:58;9.00;99.90
59309;DHT22;48433;53.016;-2.260;2023-01-19T11:41:34;8.50;99.90
59309;DHT22;48433;53.016;-2.260;2023-01-19T11:44:22;8.40;99.90
59309;DHT22;48433;53.016;-2.260;2023-01-19T11:47:01;9.10;99.90
59309;DHT22;48433;53.016;-2.260;2023-01-19T11:49:46;9.80;99.90
59309;DHT22;48433;53.016;-2.260;2023-01-19T11:52:32;10.60;99.90
59309;DHT22;48433;53.016;-2.260;2023-01-19T11:55:06;11.20;99.90
59309;DHT22;48433;53.016;-2.260;2023-01-19T11:57:49;11.80;99.90
59309;DHT22;48433;53.016;-2.260;2023-01-19T12:00:33;12.30;99.90
59309;DHT22;48433;53.016;-2.260;2023-01-19T12:05:40;12.90;99.90
59309;DHT22;48433;53.016;-2.260;2023-01-19T12:08:15;13.10;99.90
59309;DHT22;48433;53.016;-2.260;2023-01-19T12:10:45;13.20;99.90
59309;DHT22;48433;53.016;-2.260;2023-01-19T12:13:22;13.20;99.80
59309;DHT22;48433;53.016;-2.260;2023-01-19T12:15:58;13.30;99.10
59309;DHT22;48433;53.016;-2.260;2023-01-19T12:18:31;13.20;99.20
59309;DHT22;48433;53.016;-2.260;2023-01-19T12:20:59;13.30;96.20
59309;DHT22;48433;53.016;-2.260;2023-01-19T12:28:45;12.80;96.50
59309;DHT22;48433;53.016;-2.260;2023-01-19T12:31:18;11.70;97.00
59309;DHT22;48433;53.016;-2.260;2023-01-19T12:33:46;10.40;99.70
59309;DHT22;48433;53.016;-2.260;2023-01-19T12:39:09;9.10;99.90
59309;DHT22;48433;53.016;-2.260;2023-01-19T12:41:39;8.70;99.90
59309;DHT22;48433;53.016;-2.260;2023-01-19T12:46:54;7.80;99.90
59309;DHT22;48433;53.016;-2.260;2023-01-19T12:52:41;6.50;99.90
59309;DHT22;48433;53.016;-2.260;2023-01-19T12:55:37;6.10;99.90
59309;DHT22;48433;53.016;-2.260;2023-01-19T12:58:15;6.10;99.90
59309;DHT22;48433;53.016;-2.260;2023-01-19T13:00:46;6.40;99.90
59309;DHT22;48433;53.016;-2.260;2023-01-19T13:05:53;8.80;99.90
59309;DHT22;48433;53.016;-2.260;2023-01-19T13:08:26;9.90;99.90
59309;DHT22;48433;53.016;-2.260;2023-01-19T13:13:43;10.00;99.90
59309;DHT22;48433;53.016;-2.260;2023-01-19T13:26:58;10.10;99.90
59309;DHT22;48433;53.016;-2.260;2023-01-19T13:29:39;10.70;99.90
59309;DHT22;48433;53.016;-2.260;2023-01-19T13:32:13;11.40;99.90
59309;DHT22;48433;53.016;-2.260;2023-01-19T13:34:44;12.00;99.90
59309;DHT22;48433;53.016;-2.260;2023-01-19T13:37:19;12.50;99.90
59309;DHT22;48433;53.016;-2.260;2023-01-19T13:39:50;12.80;99.90
59309;DHT22;48433;53.016;-2.260;2023-01-19T13:42:39;13.00;99.90
59309;DHT22;48433;53.016;-2.260;2023-01-19T13:45:27;13.30;99.90
59309;DHT22;48433;53.016;-2.260;2023-01-19T13:47:58;13.70;99.90
59309;DHT22;48433;53.016;-2.260;2023-01-19T13:50:29;13.70;97.00
59309;DHT22;48433;53.016;-2.260;2023-01-19T13:52:57;12.70;97.70
59309;DHT22;48433;53.016;-2.260;2023-01-19T13:55:27;11.50;99.30
59309;DHT22;48433;53.016;-2.260;2023-01-19T13:57:55;10.80;99.90
59309;DHT22;48433;53.016;-2.260;2023-01-19T14:00:29;11.00;99.90
59309;DHT22;48433;53.016;-2.260;2023-01-19T14:02:59;11.00;99.90
59309;DHT22;48433;53.016;-2.260;2023-01-19T14:05:38;11.50;99.90
59309;DHT22;48433;53.016;-2.260;2023-01-19T14:10:45;12.80;99.90
59309;DHT22;48433;53.016;-2.260;2023-01-19T14:15:48;13.50;99.00
59309;DHT22;48433;53.016;-2.260;2023-01-19T14:23:44;13.90;97.00
59309;DHT22;48433;53.016;-2.260;2023-01-19T14:29:30;14.10;95.60
59309;DHT22;48433;53.016;-2.260;2023-01-19T14:34:38;13.80;93.90
59309;DHT22;48433;53.016;-2.260;2023-01-19T14:42:44;13.40;94.90
59309;DHT22;48433;53.016;-2.260;2023-01-19T14:48:19;13.70;95.50
59309;DHT22;48433;53.016;-2.260;2023-01-19T14:50:49;14.00;95.20
59309;DHT22;48433;53.016;-2.260;2023-01-19T14:53:36;14.20;95.10
59309;DHT22;48433;53.016;-2.260;2023-01-19T14:56:05;14.20;94.00
59309;DHT22;48433;53.016;-2.260;2023-01-19T14:58:34;13.80;93.30
59309;DHT22;48433;53.016;-2.260;2023-01-19T15:01:02;13.10;93.60
59309;DHT22;48433;53.016;-2.260;2023-01-19T15:03:33;13.10;93.80
59309;DHT22;48433;53.016;-2.260;2023-01-19T15:06:19;10.60;97.00
59309;DHT22;48433;53.016;-2.260;2023-01-19T15:11:31;8.90;99.90
59309;DHT22;48433;53.016;-2.260;2023-01-19T15:14:00;8.30;99.90
59309;DHT22;48433;53.016;-2.260;2023-01-19T15:16:31;7.80;99.90
59309;DHT22;48433;53.016;-2.260;2023-01-19T15:18:59;7.40;99.90
59309;DHT22;48433;53.016;-2.260;2023-01-19T15:26:25;7.70;99.90
59309;DHT22;48433;53.016;-2.260;2023-01-19T15:28:54;8.20;99.90
59309;DHT22;48433;53.016;-2.260;2023-01-19T15:31:23;8.50;99.90
59309;DHT22;48433;53.016;-2.260;2023-01-19T15:33:51;8.80;99.90
59309;DHT22;48433;53.016;-2.260;2023-01-19T15:36:20;9.20;99.90
59309;DHT22;48433;53.016;-2.260;2023-01-19T15:41:25;10.10;99.90
59309;DHT22;48433;53.016;-2.260;2023-01-19T15:43:54;10.50;99.90
59309;DHT22;48433;53.016;-2.260;2023-01-19T15:46:22;10.70;99.90
59309;DHT22;48433;53.016;-2.260;2023-01-19T15:48:52;10.90;99.90
59309;DHT22;48433;53.016;-2.260;2023-01-19T15:51:22;10.90;99.90
59309;DHT22;48433;53.016;-2.260;2023-01-19T15:53:52;10.80;99.90
59309;DHT22;48433;53.016;-2.260;2023-01-19T15:56:26;10.20;99.90
59309;DHT22;48433;53.016;-2.260;2023-01-19T15:58:54;9.30;99.90
59309;DHT22;48433;53.016;-2.260;2023-01-19T16:01:24;8.30;99.90
59309;DHT22;48433;53.016;-2.260;2023-01-19T16:04:02;7.50;99.90
59309;DHT22;48433;53.016;-2.260;2023-01-19T16:06:31;6.80;99.90
59309;DHT22;48433;53.016;-2.260;2023-01-19T16:08:58;6.20;99.90
59309;DHT22;48433;53.016;-2.260;2023-01-19T16:11:30;5.80;99.90
59309;DHT22;48433;53.016;-2.260;2023-01-19T16:13:59;5.40;99.90
59309;DHT22;48433;53.016;-2.260;2023-01-19T16:16:27;5.10;99.90
59309;DHT22;48433;53.016;-2.260;2023-01-19T16:21:23;4.70;99.90
59309;DHT22;48433;53.016;-2.260;2023-01-19T16:23:52;4.40;99.90
59309;DHT22;48433;53.016;-2.260;2023-01-19T16:26:24;4.10;99.90
59309;DHT22;48433;53.016;-2.260;2023-01-19T16:28:58;3.90;99.90
59309;DHT22;48433;53.016;-2.260;2023-01-19T16:31:27;3.70;99.90
59309;DHT22;48433;53.016;-2.260;2023-01-19T16:36:28;3.30;99.90
59309;DHT22;48433;53.016;-2.260;2023-01-19T16:39:02;3.20;99.90
59309;DHT22;48433;53.016;-2.260;2023-01-19T16:41:31;3.10;99.90
59309;DHT22;48433;53.016;-2.260;2023-01-19T16:43:59;2.90;99.90
59309;DHT22;48433;53.016;-2.260;2023-01-19T16:46:30;2.80;99.90
59309;DHT22;48433;53.016;-2.260;2023-01-19T16:49:03;2.70;99.90
59309;DHT22;48433;53.016;-2.260;2023-01-19T16:51:31;2.70;99.90
59309;DHT22;48433;53.016;-2.260;2023-01-19T16:53:58;2.60;99.90
59309;DHT22;48433;53.016;-2.260;2023-01-19T16:58:55;2.40;99.90
59309;DHT22;48433;53.016;-2.260;2023-01-19T17:01:26;2.40;99.90
59309;DHT22;48433;53.016;-2.260;2023-01-19T17:03:55;2.30;99.90
59309;DHT22;48433;53.016;-2.260;2023-01-19T17:06:23;2.20;99.90
59309;DHT22;48433;53.016;-2.260;2023-01-19T17:08:51;2.10;99.90
59309;DHT22;48433;53.016;-2.260;2023-01-19T17:11:21;2.10;99.90
59309;DHT22;48433;53.016;-2.260;2023-01-19T17:13:52;2.00;99.90
59309;DHT22;48433;53.016;-2.260;2023-01-19T17:21:17;1.90;99.90
59309;DHT22;48433;53.016;-2.260;2023-01-19T17:23:48;1.80;99.90
59309;DHT22;48433;53.016;-2.260;2023-01-19T17:26:16;1.90;99.90
59309;DHT22;48433;53.016;-2.260;2023-01-19T17:28:44;1.80;99.90
59309;DHT22;48433;53.016;-2.260;2023-01-19T17:31:18;1.80;99.90
59309;DHT22;48433;53.016;-2.260;2023-01-19T17:33:48;1.80;99.90
59309;DHT22;48433;53.016;-2.260;2023-01-19T17:36:21;1.80;99.90
59309;DHT22;48433;53.016;-2.260;2023-01-19T17:38:50;1.80;99.90
59309;DHT22;48433;53.016;-2.260;2023-01-19T17:43:48;1.80;99.90
59309;DHT22;48433;53.016;-2.260;2023-01-19T17:46:20;1.90;99.90
59309;DHT22;48433;53.016;-2.260;2023-01-19T17:48:52;1.90;99.90
59309;DHT22;48433;53.016;-2.260;2023-01-19T17:51:20;1.90;99.90
59309;DHT22;48433;53.016;-2.260;2023-01-19T17:53:52;1.80;99.90
59309;DHT22;48433;53.016;-2.260;2023-01-19T18:01:37;1.80;99.90
59309;DHT22;48433;53.016;-2.260;2023-01-19T18:04:07;1.70;99.90
59309;DHT22;48433;53.016;-2.260;2023-01-19T18:06:35;1.80;99.90
59309;DHT22;48433;53.016;-2.260;2023-01-19T18:09:03;1.80;99.90
59309;DHT22;48433;53.016;-2.260;2023-01-19T18:11:33;1.80;99.90
59309;DHT22;48433;53.016;-2.260;2023-01-19T18:14:01;1.80;99.90
59309;DHT22;48433;53.016;-2.260;2023-01-19T18:21:26;1.70;99.90
59309;DHT22;48433;53.016;-2.260;2023-01-19T18:23:59;1.70;99.90
59309;DHT22;48433;53.016;-2.260;2023-01-19T18:26:29;1.70;99.90
59309;DHT22;48433;53.016;-2.260;2023-01-19T18:28:57;1.70;99.90
59309;DHT22;48433;53.016;-2.260;2023-01-19T18:31:26;1.70;99.90
59309;DHT22;48433;53.016;-2.260;2023-01-19T18:33:53;1.60;99.90
59309;DHT22;48433;53.016;-2.260;2023-01-19T18:41:19;1.60;99.90
59309;DHT22;48433;53.016;-2.260;2023-01-19T18:48:43;1.60;99.90
59309;DHT22;48433;53.016;-2.260;2023-01-19T18:51:13;1.60;99.90
59309;DHT22;48433;53.016;-2.260;2023-01-19T18:53:41;1.60;99.90
59309;DHT22;48433;53.016;-2.260;2023-01-19T18:56:13;1.60;99.90
59309;DHT22;48433;53.016;-2.260;2023-01-19T19:01:22;1.60;99.90
59309;DHT22;48433;53.016;-2.260;2023-01-19T19:03:50;1.70;99.90
59309;DHT22;48433;53.016;-2.260;2023-01-19T19:08:51;1.90;99.90
59309;DHT22;48433;53.016;-2.260;2023-01-19T19:11:21;1.60;99.90
59309;DHT22;48433;53.016;-2.260;2023-01-19T19:13:53;1.60;99.90
59309;DHT22;48433;53.016;-2.260;2023-01-19T19:21:18;1.50;99.90
59309;DHT22;48433;53.016;-2.260;2023-01-19T19:23:55;1.60;99.90
59309;DHT22;48433;53.016;-2.260;2023-01-19T19:26:24;1.60;99.90
59309;DHT22;48433;53.016;-2.260;2023-01-19T19:28:52;1.60;99.90
59309;DHT22;48433;53.016;-2.260;2023-01-19T19:31:21;1.70;99.90
59309;DHT22;48433;53.016;-2.260;2023-01-19T19:33:49;1.80;99.90
59309;DHT22;48433;53.016;-2.260;2023-01-19T19:36:19;1.80;99.90
59309;DHT22;48433;53.016;-2.260;2023-01-19T19:38:48;1.90;99.90
59309;DHT22;48433;53.016;-2.260;2023-01-19T19:41:25;2.00;99.90
59309;DHT22;48433;53.016;-2.260;2023-01-19T19:43:55;2.00;99.90
59309;DHT22;48433;53.016;-2.260;2023-01-19T19:46:24;2.10;99.90
59309;DHT22;48433;53.016;-2.260;2023-01-19T19:48:52;2.20;99.90
59309;DHT22;48433;53.016;-2.260;2023-01-19T19:51:25;2.20;99.90
59309;DHT22;48433;53.016;-2.260;2023-01-19T19:53:56;2.40;99.90
59309;DHT22;48433;53.016;-2.260;2023-01-19T19:56:27;2.50;99.90
59309;DHT22;48433;53.016;-2.260;2023-01-19T19:58:56;2.60;99.90
59309;DHT22;48433;53.016;-2.260;2023-01-19T20:01:26;2.60;99.90
59309;DHT22;48433;53.016;-2.260;2023-01-19T20:04:07;2.70;99.90
59309;DHT22;48433;53.016;-2.260;2023-01-19T20:06:39;2.70;99.90
59309;DHT22;48433;53.016;-2.260;2023-01-19T20:09:08;2.70;99.90
59309;DHT22;48433;53.016;-2.260;2023-01-19T20:11:36;2.80;99.90
59309;DHT22;48433;53.016;-2.260;2023-01-19T20:14:05;2.80;99.90
59309;DHT22;48433;53.016;-2.260;2023-01-19T20:16:35;2.80;99.90
59309;DHT22;48433;53.016;-2.260;2023-01-19T20:19:04;2.80;99.90
59309;DHT22;48433;53.016;-2.260;2023-01-19T20:21:35;2.80;99.90
59309;DHT22;48433;53.016;-2.260;2023-01-19T20:24:11;2.80;99.90
59309;DHT22;48433;53.016;-2.260;2023-01-19T20:26:44;2.90;99.90
59309;DHT22;48433;53.016;-2.260;2023-01-19T20:29:13;2.80;99.90
59309;DHT22;48433;53.016;-2.260;2023-01-19T20:31:47;2.90;99.90
59309;DHT22;48433;53.016;-2.260;2023-01-19T20:34:16;2.90;99.90
59309;DHT22;48433;53.016;-2.260;2023-01-19T20:39:18;2.90;99.90
59309;DHT22;48433;53.016;-2.260;2023-01-19T20:41:46;2.90;99.90
59309;DHT22;48433;53.016;-2.260;2023-01-19T20:44:20;3.00;99.90
59309;DHT22;48433;53.016;-2.260;2023-01-19T20:46:50;2.90;99.90
59309;DHT22;48433;53.016;-2.260;2023-01-19T20:51:46;3.10;99.90
59309;DHT22;48433;53.016;-2.260;2023-01-19T20:54:18;3.00;99.90
59309;DHT22;48433;53.016;-2.260;2023-01-19T20:56:46;3.00;99.90
59309;DHT22;48433;53.016;-2.260;2023-01-19T20:59:14;3.10;99.90
59309;DHT22;48433;53.016;-2.260;2023-01-19T21:01:42;3.10;99.90